2022年5月27日

时间 代码 天气 温度 能见度 天花板 METAR/SPECI
1:30 下午
V
68 °F 6¼ mi+ 4.000 ft 260° 260° 9 kt METAR LFST 271130Z AUTO 26009KT 230V290 9999 BKN040 OVC046 20/09 Q1023 NOSIG
1:00 下午
V
70 °F 6¼ mi+ 4.400 ft 250° 250° 12 kt METAR LFST 271100Z AUTO 25012KT 230V290 9999 FEW037 BKN044 OVC066 21/10 Q1023 NOSIG
12:30 下午
V
68 °F 6¼ mi+ 4.600 ft 280° 280° 12 kt METAR LFST 271030Z AUTO 28012KT 9999 FEW039 OVC046 20/11 Q1024 NOSIG
12:00 下午
V
64 °F 6¼ mi+ 4.000 ft 270° 270° 11 kt METAR LFST 271000Z AUTO 27011KT 240V300 9999 OVC040 18/09 Q1024 NOSIG
11:30 上午
V
66 °F 6¼ mi+ 3.900 ft 270° 270° 9 kt METAR LFST 270930Z AUTO 27009KT 230V300 9999 BKN039 OVC045 19/09 Q1024 NOSIG
11:00 上午
V
66 °F 6¼ mi+ 3.700 ft 260° 260° 14 kt METAR LFST 270900Z AUTO 26014KT 220V280 9999 BKN037 BKN044 19/09 Q1024 NOSIG
10:30 上午
V
64 °F 6¼ mi+ 4.300 ft 270° 270° 10 kt METAR LFST 270830Z AUTO 27010KT 250V310 9999 FEW031 OVC043 18/10 Q1024 NOSIG
10:00 上午
V
64 °F 6¼ mi+ 3.800 ft 250° 250° 11 kt METAR LFST 270800Z AUTO 25011KT 9999 OVC038 18/09 Q1024 NOSIG
9:30 上午
V
63 °F 6¼ mi+ 3.300 ft 250° 250° 11 kt METAR LFST 270730Z AUTO 25011KT 9999 OVC033 17/10 Q1024 NOSIG
9:00 上午
V
63 °F 6¼ mi+ 3.200 ft 250° 250° 10 kt METAR LFST 270700Z AUTO 25010KT 9999 BKN032 OVC038 17/10 Q1024 NOSIG
8:30 上午
V
63 °F 6¼ mi+ 3.000 ft 270° 270° 8 kt METAR LFST 270630Z AUTO 27008KT 240V300 9999 OVC030 17/10 Q1024 NOSIG
8:00 上午
V
61 °F 6¼ mi+ 3.000 ft 260° 260° 8 kt METAR LFST 270600Z AUTO 26008KT 220V290 9999 OVC030 16/10 Q1024 NOSIG
7:30 上午
V
61 °F 6¼ mi+ 3.000 ft 260° 260° 9 kt METAR LFST 270530Z AUTO 26009KT 9999 OVC030 16/10 Q1024 NOSIG
7:00 上午
V
61 °F 6¼ mi+ 3.000 ft 260° 260° 10 kt METAR LFST 270500Z AUTO 26010KT 9999 OVC030 16/10 Q1023 NOSIG
6:30 上午
V
59 °F 6¼ mi+ 3.200 ft Var Var 3 kt METAR LFST 270430Z AUTO VRB03KT 9999 OVC032 15/11 Q1023 NOSIG
6:00 上午
V
57 °F 6¼ mi+ 3.300 ft Var Var 1 kt METAR LFST 270400Z AUTO VRB01KT 9999 OVC033 14/11 Q1023 NOSIG
5:30 上午
V
57 °F 6¼ mi+ 3.400 ft Var Var 1 kt METAR LFST 270330Z AUTO VRB01KT 9999 OVC034 14/10 Q1023 NOSIG
5:00 上午
V
55 °F 6¼ mi+ 3.700 ft Var 000° 0 kt METAR LFST 270300Z AUTO 00000KT 9999 OVC037 13/09 Q1023 NOSIG
4:30 上午
V
55 °F 6¼ mi+ - Var Var 1 kt METAR LFST 270230Z AUTO VRB01KT 9999 SCT039 13/09 Q1023 NOSIG
4:00 上午
V
55 °F 6¼ mi+ - 210° 210° 2 kt METAR LFST 270200Z AUTO 21002KT 9999 FEW040 13/09 Q1023 NOSIG
3:30 上午
V
57 °F 6¼ mi+ - 280° 280° 4 kt METAR LFST 270130Z AUTO 28004KT 250V360 9999 FEW041 14/09 Q1023 NOSIG
3:00 上午
V
59 °F 6¼ mi+ - 260° 260° 6 kt METAR LFST 270100Z AUTO 26006KT CAVOK 15/09 Q1023 NOSIG
2:30 上午
V
57 °F 6¼ mi+ - 250° 250° 6 kt METAR LFST 270030Z AUTO 25006KT CAVOK 14/09 Q1023 NOSIG
2:00 上午
V
57 °F 6¼ mi+ - 280° 280° 6 kt METAR LFST 270000Z AUTO 28006KT CAVOK 14/09 Q1024 NOSIG
1:30 上午
V
59 °F 6¼ mi+ - 300° 300° 4 kt METAR LFST 262330Z AUTO 30004KT 250V310 CAVOK 15/09 Q1024 NOSIG
1:00 上午
V
59 °F 6¼ mi+ - 280° 280° 3 kt METAR LFST 262300Z AUTO 28003KT CAVOK 15/09 Q1024 NOSIG
12:30 上午
V
59 °F 6¼ mi+ - 270° 270° 6 kt METAR LFST 262230Z AUTO 27006KT CAVOK 15/09 Q1024 NOSIG
12:00 上午
V
59 °F 6¼ mi+ - 220° 220° 4 kt METAR LFST 262200Z AUTO 22004KT CAVOK 15/09 Q1024 NOSIG

2022年5月26日

时间 代码 天气 温度 能见度 天花板 METAR/SPECI
11:30 下午
V
61 °F 6¼ mi+ - 260° 260° 3 kt METAR LFST 262130Z AUTO 26003KT CAVOK 16/09 Q1024 NOSIG
11:00 下午
V
63 °F 6¼ mi+ - 240° 240° 4 kt METAR LFST 262100Z AUTO 24004KT CAVOK 17/09 Q1024 NOSIG
10:30 下午
V
63 °F 6¼ mi+ - 270° 270° 4 kt METAR LFST 262030Z AUTO 27004KT CAVOK 17/09 Q1024 NOSIG
10:00 下午
V
63 °F 6¼ mi+ - 300° 300° 5 kt METAR LFST 262000Z AUTO 30005KT 260V320 CAVOK 17/09 Q1024 NOSIG
9:30 下午
V
64 °F 6¼ mi+ - 300° 300° 5 kt METAR LFST 261930Z AUTO 30005KT CAVOK 18/09 Q1024 NOSIG
9:00 下午
V
66 °F 6¼ mi+ - 310° 310° 6 kt METAR LFST 261900Z AUTO 31006KT CAVOK 19/09 Q1023 NOSIG
8:30 下午
V
70 °F 6¼ mi+ - 280° 280° 7 kt METAR LFST 261830Z AUTO 28007KT CAVOK 21/09 Q1023 NOSIG
8:00 下午
V
72 °F 6¼ mi+ - 300° 300° 5 kt METAR LFST 261800Z AUTO 30005KT CAVOK 22/09 Q1023 NOSIG
7:30 下午
V
73 °F 6¼ mi+ - 310° 310° 5 kt METAR LFST 261730Z AUTO 31005KT CAVOK 23/09 Q1023 NOSIG
7:00 下午
V
73 °F 6¼ mi+ - 340° 340° 7 kt METAR LFST 261700Z AUTO 34007KT 290V360 9999 FEW056 23/08 Q1023 NOSIG
6:30 下午
V
73 °F 6¼ mi+ - 270° 270° 8 kt METAR LFST 261630Z AUTO 27008KT 240V310 9999 FEW058 23/08 Q1023 NOSIG
6:00 下午
V
75 °F 6¼ mi+ - 240° 240° 8 kt METAR LFST 261600Z AUTO 24008KT 200V280 9999 SCT058 24/08 Q1023 NOSIG
5:30 下午
V
75 °F 6¼ mi+ - 250° 250° 7 kt METAR LFST 261530Z AUTO 25007KT 200V320 9999 FEW058 24/08 Q1024 NOSIG
5:00 下午
V
73 °F 6¼ mi+ 5.600 ft 290° 290° 7 kt METAR LFST 261500Z AUTO 29007KT 240V350 9999 BKN056 23/09 Q1024 NOSIG
4:30 下午
V
72 °F 6¼ mi+ 5.800 ft Var Var 7 kt METAR LFST 261430Z AUTO VRB07KT 9999 BKN058 22/08 Q1024 NOSIG
4:00 下午
V
72 °F 6¼ mi+ 5.400 ft 270° 270° 7 kt METAR LFST 261400Z AUTO 27007KT 220V330 9999 SCT046 BKN054 BKN064 22/09 Q1024 NOSIG
3:30 下午
V
70 °F 6¼ mi+ 6.600 ft 230° 230° 10 kt METAR LFST 261330Z AUTO 23010KT 200V270 9999 SCT049 BKN066 21/09 Q1024 NOSIG
3:00 下午
V
72 °F 6¼ mi+ 6.400 ft 220° 220° 8 kt METAR LFST 261300Z AUTO 22008KT 190V250 9999 FEW046 BKN064 22/09 Q1025 NOSIG
2:30 下午
V
70 °F 6¼ mi+ 6.200 ft 250° 250° 8 kt METAR LFST 261230Z AUTO 25008KT 220V280 9999 FEW041 SCT048 OVC062 21/10 Q1025 NOSIG
2:00 下午
V
68 °F 6¼ mi+ 6.000 ft 300° 300° 7 kt METAR LFST 261200Z AUTO 30007KT 270V350 9999 FEW040 OVC060 20/10 Q1025 NOSIG
1:30 下午
V
68 °F 6¼ mi+ 6.200 ft 270° 270° 6 kt METAR LFST 261130Z AUTO 27006KT 230V300 9999 FEW049 OVC062 20/10 Q1025 NOSIG
1:00 下午
V
68 °F 6¼ mi+ 4.600 ft 290° 290° 9 kt METAR LFST 261100Z AUTO 29009KT 9999 BKN046 OVC054 20/10 Q1025 NOSIG
12:30 下午
V
66 °F 6¼ mi+ 4.000 ft 250° 250° 7 kt METAR LFST 261030Z AUTO 25007KT 200V310 9999 BKN040 BKN046 OVC054 19/09 Q1025 NOSIG
12:00 下午
V
64 °F 6¼ mi+ 4.000 ft 210° 210° 7 kt METAR LFST 261000Z AUTO 21007KT 180V270 9999 BKN040 BKN050 OVC064 18/09 Q1025 NOSIG
11:30 上午
V
66 °F 6¼ mi+ 6.200 ft 240° 240° 6 kt METAR LFST 260930Z AUTO 24006KT 200V300 9999 FEW049 OVC062 19/09 Q1025 NOSIG
11:00 上午
V
66 °F 6¼ mi+ 5.600 ft 250° 250° 6 kt METAR LFST 260900Z AUTO 25006KT 220V280 9999 FEW047 BKN056 OVC066 19/09 Q1025 NOSIG
10:30 上午
V
66 °F 6¼ mi+ - 230° 230° 7 kt METAR LFST 260830Z AUTO 23007KT 200V280 CAVOK 19/09 Q1025 NOSIG
10:00 上午
V
64 °F 6¼ mi+ 6.400 ft 240° 240° 9 kt METAR LFST 260800Z AUTO 24009KT 9999 FEW054 OVC064 18/09 Q1024 NOSIG
9:30 上午
V
64 °F 6¼ mi+ 5.800 ft 250° 250° 7 kt METAR LFST 260730Z AUTO 25007KT 9999 FEW039 BKN058 OVC068 18/09 Q1024 NOSIG
9:00 上午
V
64 °F 6¼ mi+ 5.400 ft 220° 220° 6 kt METAR LFST 260700Z AUTO 22006KT 180V260 9999 FEW041 BKN054 OVC070 18/09 Q1024 NOSIG
8:30 上午
V
63 °F 6¼ mi+ - 190° 190° 5 kt METAR LFST 260630Z AUTO 19005KT CAVOK 17/09 Q1024 BECMG 29010KT
8:00 上午
V
61 °F 6¼ mi+ - 210° 210° 6 kt METAR LFST 260600Z AUTO 21006KT CAVOK 16/09 Q1023 BECMG 29010KT
7:30 上午
V
61 °F 6¼ mi+ 6.800 ft 200° 200° 7 kt METAR LFST 260530Z AUTO 20007KT 9999 FEW056 BKN068 16/09 Q1023 BECMG 29010KT
7:00 上午
V
59 °F 6¼ mi+ - 180° 180° 7 kt METAR LFST 260500Z AUTO 18007KT CAVOK 15/08 Q1023 BECMG 29010KT
6:30 上午
V
54 °F 6¼ mi+ - 200° 200° 4 kt METAR LFST 260430Z AUTO 20004KT 9999 FEW049 SCT090 12/07 Q1023 BECMG 29010KT
6:00 上午
V
52 °F 6¼ mi+ - 210° 210° 5 kt METAR LFST 260400Z AUTO 21005KT CAVOK 11/07 Q1023 NOSIG
5:30 上午
V
54 °F 6¼ mi+ - 220° 220° 4 kt METAR LFST 260330Z AUTO 22004KT CAVOK 12/07 Q1022 NOSIG
5:00 上午
V
55 °F 6¼ mi+ - 200° 200° 4 kt METAR LFST 260300Z AUTO 20004KT CAVOK 13/08 Q1022 NOSIG
4:30 上午
V
57 °F 6¼ mi+ - 220° 220° 5 kt METAR LFST 260230Z AUTO 22005KT CAVOK 14/07 Q1022 NOSIG
4:00 上午
V
59 °F 6¼ mi+ - 220° 220° 4 kt METAR LFST 260200Z AUTO 22004KT CAVOK 15/08 Q1022 NOSIG
3:30 上午
V
59 °F 6¼ mi+ - 230° 230° 5 kt METAR LFST 260130Z AUTO 23005KT CAVOK 15/08 Q1022 NOSIG
3:00 上午
V
59 °F 6¼ mi+ - 220° 220° 7 kt METAR LFST 260100Z AUTO 22007KT CAVOK 15/08 Q1022 NOSIG
2:30 上午
V
57 °F 6¼ mi+ - 210° 210° 5 kt METAR LFST 260030Z AUTO 21005KT CAVOK 14/08 Q1022 NOSIG
2:00 上午
V
59 °F 6¼ mi+ - 220° 220° 6 kt METAR LFST 260000Z AUTO 22006KT CAVOK 15/07 Q1022 NOSIG
1:30 上午
V
61 °F 6¼ mi+ - 230° 230° 8 kt METAR LFST 252330Z AUTO 23008KT CAVOK 16/07 Q1022 NOSIG
1:00 上午
V
57 °F 6¼ mi+ - 210° 210° 5 kt METAR LFST 252300Z AUTO 21005KT CAVOK 14/07 Q1022 NOSIG
12:30 上午
V
61 °F 6¼ mi+ - 180° 180° 3 kt METAR LFST 252230Z AUTO 18003KT 130V290 CAVOK 16/07 Q1021 NOSIG
12:00 上午
V
63 °F 6¼ mi+ - 280° 280° 7 kt METAR LFST 252200Z AUTO 28007KT CAVOK 17/07 Q1021 NOSIG

2022年5月25日

时间 代码 天气 温度 能见度 天花板 METAR/SPECI
11:30 下午
V
63 °F 6¼ mi+ - 260° 260° 6 kt METAR LFST 252130Z AUTO 26006KT 220V290 CAVOK 17/07 Q1021 NOSIG
11:00 下午
V
64 °F 6¼ mi+ - 260° 260° 5 kt METAR LFST 252100Z AUTO 26005KT CAVOK 18/07 Q1021 NOSIG
10:30 下午
V
64 °F 6¼ mi+ - 280° 280° 6 kt METAR LFST 252030Z AUTO 28006KT CAVOK 18/06 Q1021 NOSIG
10:00 下午
V
64 °F 6¼ mi+ - 240° 240° 5 kt METAR LFST 252000Z AUTO 24005KT 220V280 CAVOK 18/07 Q1020 NOSIG
9:30 下午
V
66 °F 6¼ mi+ - 240° 240° 3 kt METAR LFST 251930Z AUTO 24003KT 160V310 CAVOK 19/06 Q1020 NOSIG
9:00 下午
V
68 °F 6¼ mi+ - 300° 300° 6 kt METAR LFST 251900Z AUTO 30006KT 270V330 CAVOK 20/06 Q1019 NOSIG
8:30 下午
V
70 °F 6¼ mi+ - 280° 280° 8 kt METAR LFST 251830Z AUTO 28008KT CAVOK 21/06 Q1019 NOSIG
8:00 下午
V
70 °F 6¼ mi+ - 290° 290° 11 kt METAR LFST 251800Z AUTO 29011KT CAVOK 21/06 Q1019 NOSIG
7:30 下午
V
72 °F 6¼ mi+ - 280° 280° 12 kt METAR LFST 251730Z AUTO 28012KT CAVOK 22/07 Q1018 NOSIG
7:00 下午
V
73 °F 6¼ mi+ - 280° 280° 12 kt METAR LFST 251700Z AUTO 28012KT CAVOK 23/05 Q1018 NOSIG
6:30 下午
V
73 °F 6¼ mi+ - 290° 290° 10 kt METAR LFST 251630Z AUTO 29010KT 260V330 CAVOK 23/06 Q1018 NOSIG
6:00 下午
V
73 °F 6¼ mi+ - 280° 280° 9 kt METAR LFST 251600Z AUTO 28009KT 250V320 CAVOK 23/05 Q1018 NOSIG
5:30 下午
V
75 °F 6¼ mi+ - Var Var 4 kt METAR LFST 251530Z AUTO VRB04KT CAVOK 24/06 Q1017 NOSIG
5:00 下午
V
73 °F 6¼ mi+ - 350° 350° 4 kt METAR LFST 251500Z AUTO 35004KT 280V060 CAVOK 23/06 Q1017 NOSIG
4:30 下午
V
73 °F 6¼ mi+ - Var Var 2 kt METAR LFST 251430Z AUTO VRB02KT CAVOK 23/05 Q1017 NOSIG
4:00 下午
V
72 °F 6¼ mi+ - 360° 360° 4 kt METAR LFST 251400Z AUTO 36004KT 290V040 CAVOK 22/06 Q1017 NOSIG
3:30 下午
V
73 °F 6¼ mi+ - Var Var 5 kt METAR LFST 251330Z AUTO VRB05KT CAVOK 23/05 Q1017 NOSIG
3:00 下午
V
72 °F 6¼ mi+ - 250° 250° 4 kt METAR LFST 251300Z AUTO 25004KT 180V350 CAVOK 22/06 Q1017 NOSIG
2:30 下午
V
73 °F 6¼ mi+ - 250° 250° 4 kt METAR LFST 251230Z AUTO 25004KT 200V350 CAVOK 23/06 Q1017 NOSIG
2:00 下午
V
72 °F 6¼ mi+ - Var Var 3 kt METAR LFST 251200Z AUTO VRB03KT CAVOK 22/06 Q1018 NOSIG
较旧的数据

下载我们的应用程序

在您的手机和平板电脑上轻松访问所有航空天气。
有许多网站上没有的功能,如离线支持和个人机场列表。

Studio Eveline

Benalmádena
España

我们和第三方通过cookies跟踪您在我们网站上的上网行为。如果您继续,我们认为您同意我们的cookie政策。 了解更多